sensor_id;sensor_type;location;lat;lon;timestamp;P1;durP1;ratioP1;P2;durP2;ratioP2
22565;SDS011;11449;51.330;19.378;2023-04-15T00:02:51;41.40;;;9.40;;
22565;SDS011;11449;51.330;19.378;2023-04-15T00:07:59;39.70;;;8.70;;
22565;SDS011;11449;51.330;19.378;2023-04-15T00:13:07;59.70;;;10.20;;
22565;SDS011;11449;51.330;19.378;2023-04-15T00:18:15;62.10;;;11.30;;
22565;SDS011;11449;51.330;19.378;2023-04-15T00:23:23;42.90;;;9.00;;
22565;SDS011;11449;51.330;19.378;2023-04-15T00:28:31;43.50;;;9.40;;
22565;SDS011;11449;51.330;19.378;2023-04-15T00:33:40;34.90;;;8.50;;
22565;SDS011;11449;51.330;19.378;2023-04-15T00:38:47;35.50;;;7.40;;
22565;SDS011;11449;51.330;19.378;2023-04-15T00:43:55;41.60;;;8.80;;
22565;SDS011;11449;51.330;19.378;2023-04-15T00:49:03;40.90;;;9.30;;
22565;SDS011;11449;51.330;19.378;2023-04-15T00:54:11;44.10;;;9.10;;
22565;SDS011;11449;51.330;19.378;2023-04-15T00:59:19;43.60;;;9.10;;
22565;SDS011;11449;51.330;19.378;2023-04-15T01:04:29;41.90;;;8.40;;
22565;SDS011;11449;51.330;19.378;2023-04-15T01:09:36;44.10;;;8.70;;
22565;SDS011;11449;51.330;19.378;2023-04-15T01:14:44;41.20;;;9.00;;
22565;SDS011;11449;51.330;19.378;2023-04-15T01:19:52;42.20;;;8.80;;
22565;SDS011;11449;51.330;19.378;2023-04-15T01:25:05;47.80;;;10.00;;
22565;SDS011;11449;51.330;19.378;2023-04-15T01:30:16;44.60;;;8.50;;
22565;SDS011;11449;51.330;19.378;2023-04-15T01:35:24;58.60;;;10.40;;
22565;SDS011;11449;51.330;19.378;2023-04-15T01:40:32;44.60;;;9.20;;
22565;SDS011;11449;51.330;19.378;2023-04-15T01:45:40;38.10;;;8.50;;
22565;SDS011;11449;51.330;19.378;2023-04-15T01:50:48;45.80;;;9.50;;
22565;SDS011;11449;51.330;19.378;2023-04-15T01:55:55;46.40;;;9.40;;
22565;SDS011;11449;51.330;19.378;2023-04-15T02:01:03;46.40;;;9.90;;
22565;SDS011;11449;51.330;19.378;2023-04-15T02:06:11;38.80;;;8.90;;
22565;SDS011;11449;51.330;19.378;2023-04-15T02:11:19;42.70;;;8.40;;
22565;SDS011;11449;51.330;19.378;2023-04-15T02:16:27;40.60;;;9.70;;
22565;SDS011;11449;51.330;19.378;2023-04-15T02:21:35;45.40;;;9.70;;
22565;SDS011;11449;51.330;19.378;2023-04-15T02:26:43;44.30;;;10.00;;
22565;SDS011;11449;51.330;19.378;2023-04-15T02:31:50;46.20;;;10.10;;
22565;SDS011;11449;51.330;19.378;2023-04-15T02:36:58;38.50;;;9.30;;
22565;SDS011;11449;51.330;19.378;2023-04-15T02:42:06;41.30;;;9.90;;
22565;SDS011;11449;51.330;19.378;2023-04-15T02:47:14;42.60;;;10.10;;
22565;SDS011;11449;51.330;19.378;2023-04-15T02:52:23;43.10;;;10.70;;
22565;SDS011;11449;51.330;19.378;2023-04-15T02:57:31;47.70;;;11.20;;
22565;SDS011;11449;51.330;19.378;2023-04-15T03:02:40;56.10;;;11.80;;
22565;SDS011;11449;51.330;19.378;2023-04-15T03:07:49;49.90;;;10.80;;
22565;SDS011;11449;51.330;19.378;2023-04-15T03:12:57;51.00;;;11.40;;
22565;SDS011;11449;51.330;19.378;2023-04-15T03:18:05;50.70;;;12.40;;
22565;SDS011;11449;51.330;19.378;2023-04-15T03:23:15;41.50;;;10.90;;
22565;SDS011;11449;51.330;19.378;2023-04-15T03:28:24;58.50;;;13.30;;
22565;SDS011;11449;51.330;19.378;2023-04-15T03:33:33;56.20;;;11.80;;
22565;SDS011;11449;51.330;19.378;2023-04-15T03:38:41;54.80;;;11.70;;
22565;SDS011;11449;51.330;19.378;2023-04-15T03:43:49;36.90;;;10.30;;
22565;SDS011;11449;51.330;19.378;2023-04-15T03:48:58;35.30;;;9.90;;
22565;SDS011;11449;51.330;19.378;2023-04-15T03:54:06;46.20;;;12.20;;
22565;SDS011;11449;51.330;19.378;2023-04-15T03:59:13;35.30;;;9.60;;
22565;SDS011;11449;51.330;19.378;2023-04-15T04:04:21;41.30;;;11.30;;
22565;SDS011;11449;51.330;19.378;2023-04-15T04:09:29;40.70;;;11.00;;
22565;SDS011;11449;51.330;19.378;2023-04-15T04:14:36;39.30;;;9.20;;
22565;SDS011;11449;51.330;19.378;2023-04-15T04:19:44;42.70;;;10.50;;
22565;SDS011;11449;51.330;19.378;2023-04-15T04:24:51;38.30;;;9.80;;
22565;SDS011;11449;51.330;19.378;2023-04-15T04:29:59;40.70;;;9.20;;
22565;SDS011;11449;51.330;19.378;2023-04-15T04:35:07;45.70;;;9.90;;
22565;SDS011;11449;51.330;19.378;2023-04-15T04:40:15;43.70;;;9.40;;
22565;SDS011;11449;51.330;19.378;2023-04-15T04:45:23;56.50;;;10.70;;
22565;SDS011;11449;51.330;19.378;2023-04-15T04:50:30;39.20;;;9.00;;
22565;SDS011;11449;51.330;19.378;2023-04-15T04:55:38;39.80;;;9.20;;
22565;SDS011;11449;51.330;19.378;2023-04-15T05:00:46;37.70;;;9.50;;
22565;SDS011;11449;51.330;19.378;2023-04-15T05:05:53;43.30;;;9.80;;
22565;SDS011;11449;51.330;19.378;2023-04-15T05:11:01;45.90;;;9.70;;
22565;SDS011;11449;51.330;19.378;2023-04-15T05:16:09;36.70;;;9.20;;
22565;SDS011;11449;51.330;19.378;2023-04-15T05:21:17;51.30;;;11.80;;
22565;SDS011;11449;51.330;19.378;2023-04-15T05:26:25;56.70;;;12.40;;
22565;SDS011;11449;51.330;19.378;2023-04-15T05:31:34;59.10;;;13.80;;
22565;SDS011;11449;51.330;19.378;2023-04-15T05:36:42;57.90;;;13.40;;
22565;SDS011;11449;51.330;19.378;2023-04-15T05:41:49;60.60;;;12.80;;
22565;SDS011;11449;51.330;19.378;2023-04-15T05:46:57;61.60;;;13.70;;
22565;SDS011;11449;51.330;19.378;2023-04-15T05:52:05;63.50;;;14.80;;
22565;SDS011;11449;51.330;19.378;2023-04-15T05:57:12;57.60;;;13.70;;
22565;SDS011;11449;51.330;19.378;2023-04-15T06:02:20;56.80;;;13.60;;
22565;SDS011;11449;51.330;19.378;2023-04-15T06:07:28;57.90;;;13.50;;
22565;SDS011;11449;51.330;19.378;2023-04-15T06:12:36;53.60;;;13.00;;
22565;SDS011;11449;51.330;19.378;2023-04-15T06:17:38;58.40;;;13.30;;
22565;SDS011;11449;51.330;19.378;2023-04-15T06:22:46;51.90;;;11.90;;
22565;SDS011;11449;51.330;19.378;2023-04-15T06:27:54;79.20;;;13.40;;
22565;SDS011;11449;51.330;19.378;2023-04-15T06:33:02;49.20;;;10.90;;
22565;SDS011;11449;51.330;19.378;2023-04-15T06:38:11;51.70;;;11.60;;
22565;SDS011;11449;51.330;19.378;2023-04-15T06:43:20;51.70;;;12.10;;
22565;SDS011;11449;51.330;19.378;2023-04-15T06:48:28;54.20;;;12.10;;
22565;SDS011;11449;51.330;19.378;2023-04-15T06:53:36;49.70;;;14.40;;
22565;SDS011;11449;51.330;19.378;2023-04-15T06:58:47;45.90;;;10.90;;
22565;SDS011;11449;51.330;19.378;2023-04-15T07:03:55;59.70;;;16.10;;
22565;SDS011;11449;51.330;19.378;2023-04-15T07:09:02;56.00;;;15.20;;
22565;SDS011;11449;51.330;19.378;2023-04-15T07:14:11;56.60;;;13.20;;
22565;SDS011;11449;51.330;19.378;2023-04-15T07:19:19;58.80;;;18.10;;
22565;SDS011;11449;51.330;19.378;2023-04-15T07:24:27;68.70;;;21.50;;
22565;SDS011;11449;51.330;19.378;2023-04-15T07:29:34;53.10;;;14.00;;
22565;SDS011;11449;51.330;19.378;2023-04-15T07:34:42;61.10;;;16.30;;
22565;SDS011;11449;51.330;19.378;2023-04-15T07:39:50;50.10;;;17.20;;
22565;SDS011;11449;51.330;19.378;2023-04-15T07:44:59;53.10;;;14.10;;
22565;SDS011;11449;51.330;19.378;2023-04-15T07:50:08;51.10;;;11.70;;
22565;SDS011;11449;51.330;19.378;2023-04-15T07:55:15;51.00;;;11.60;;
22565;SDS011;11449;51.330;19.378;2023-04-15T08:00:27;49.70;;;10.10;;
22565;SDS011;11449;51.330;19.378;2023-04-15T08:05:35;56.60;;;11.60;;
22565;SDS011;11449;51.330;19.378;2023-04-15T08:10:43;52.60;;;10.20;;
22565;SDS011;11449;51.330;19.378;2023-04-15T08:15:52;49.00;;;11.50;;
22565;SDS011;11449;51.330;19.378;2023-04-15T08:21:19;51.10;;;10.30;;
22565;SDS011;11449;51.330;19.378;2023-04-15T08:26:26;42.50;;;8.60;;
22565;SDS011;11449;51.330;19.378;2023-04-15T08:31:34;52.90;;;9.60;;
22565;SDS011;11449;51.330;19.378;2023-04-15T08:36:42;62.30;;;10.30;;
22565;SDS011;11449;51.330;19.378;2023-04-15T08:42:00;49.10;;;11.20;;
22565;SDS011;11449;51.330;19.378;2023-04-15T08:47:09;35.80;;;7.90;;
22565;SDS011;11449;51.330;19.378;2023-04-15T08:52:19;79.90;;;26.20;;
22565;SDS011;11449;51.330;19.378;2023-04-15T08:57:27;50.40;;;8.60;;
22565;SDS011;11449;51.330;19.378;2023-04-15T09:02:35;27.30;;;4.90;;
22565;SDS011;11449;51.330;19.378;2023-04-15T09:07:43;34.10;;;5.90;;
22565;SDS011;11449;51.330;19.378;2023-04-15T09:12:50;36.10;;;6.20;;
22565;SDS011;11449;51.330;19.378;2023-04-15T09:17:58;36.20;;;7.20;;
22565;SDS011;11449;51.330;19.378;2023-04-15T09:23:12;41.50;;;7.50;;
22565;SDS011;11449;51.330;19.378;2023-04-15T09:28:24;52.30;;;8.70;;
22565;SDS011;11449;51.330;19.378;2023-04-15T09:33:34;42.10;;;8.40;;
22565;SDS011;11449;51.330;19.378;2023-04-15T09:38:53;51.60;;;11.90;;
22565;SDS011;11449;51.330;19.378;2023-04-15T09:44:01;37.20;;;7.40;;
22565;SDS011;11449;51.330;19.378;2023-04-15T09:49:09;48.70;;;11.80;;
22565;SDS011;11449;51.330;19.378;2023-04-15T09:54:20;45.30;;;7.80;;
22565;SDS011;11449;51.330;19.378;2023-04-15T09:59:28;43.40;;;6.60;;
22565;SDS011;11449;51.330;19.378;2023-04-15T10:04:37;36.30;;;7.00;;
22565;SDS011;11449;51.330;19.378;2023-04-15T10:09:47;37.60;;;7.50;;
22565;SDS011;11449;51.330;19.378;2023-04-15T10:14:55;41.40;;;7.50;;
22565;SDS011;11449;51.330;19.378;2023-04-15T10:20:05;55.70;;;11.90;;
22565;SDS011;11449;51.330;19.378;2023-04-15T10:25:14;57.70;;;8.20;;
22565;SDS011;11449;51.330;19.378;2023-04-15T10:30:22;43.00;;;7.90;;
22565;SDS011;11449;51.330;19.378;2023-04-15T10:35:30;51.40;;;11.10;;
22565;SDS011;11449;51.330;19.378;2023-04-15T10:40:38;51.60;;;9.60;;
22565;SDS011;11449;51.330;19.378;2023-04-15T10:45:46;51.30;;;10.70;;
22565;SDS011;11449;51.330;19.378;2023-04-15T10:51:01;57.20;;;14.80;;
22565;SDS011;11449;51.330;19.378;2023-04-15T10:56:10;47.80;;;9.60;;
22565;SDS011;11449;51.330;19.378;2023-04-15T11:01:18;64.20;;;10.10;;
22565;SDS011;11449;51.330;19.378;2023-04-15T11:06:42;37.50;;;5.70;;
22565;SDS011;11449;51.330;19.378;2023-04-15T11:17:23;45.30;;;6.30;;
22565;SDS011;11449;51.330;19.378;2023-04-15T11:22:33;54.60;;;14.40;;
22565;SDS011;11449;51.330;19.378;2023-04-15T11:27:41;46.00;;;8.60;;
22565;SDS011;11449;51.330;19.378;2023-04-15T11:32:49;38.20;;;7.60;;
22565;SDS011;11449;51.330;19.378;2023-04-15T11:37:56;41.90;;;7.10;;
22565;SDS011;11449;51.330;19.378;2023-04-15T11:48:12;47.60;;;10.30;;
22565;SDS011;11449;51.330;19.378;2023-04-15T11:53:20;53.70;;;7.80;;
22565;SDS011;11449;51.330;19.378;2023-04-15T11:58:28;38.70;;;6.90;;
22565;SDS011;11449;51.330;19.378;2023-04-15T12:08:47;39.70;;;7.10;;
22565;SDS011;11449;51.330;19.378;2023-04-15T12:19:36;7.20;;;4.10;;
22565;SDS011;11449;51.330;19.378;2023-04-15T12:24:44;6.00;;;5.10;;
22565;SDS011;11449;51.330;19.378;2023-04-15T12:30:02;9.50;;;6.90;;
22565;SDS011;11449;51.330;19.378;2023-04-15T12:35:10;3.60;;;2.50;;
22565;SDS011;11449;51.330;19.378;2023-04-15T12:40:18;5.50;;;3.60;;
22565;SDS011;11449;51.330;19.378;2023-04-15T12:45:26;6.20;;;4.10;;
22565;SDS011;11449;51.330;19.378;2023-04-15T12:50:34;6.40;;;4.50;;
22565;SDS011;11449;51.330;19.378;2023-04-15T12:55:42;9.40;;;5.50;;
22565;SDS011;11449;51.330;19.378;2023-04-15T13:00:49;8.10;;;5.20;;
22565;SDS011;11449;51.330;19.378;2023-04-15T13:05:57;35.80;;;7.00;;
22565;SDS011;11449;51.330;19.378;2023-04-15T13:11:05;41.10;;;6.60;;
22565;SDS011;11449;51.330;19.378;2023-04-15T13:16:13;31.00;;;5.50;;
22565;SDS011;11449;51.330;19.378;2023-04-15T13:21:20;34.90;;;6.70;;
22565;SDS011;11449;51.330;19.378;2023-04-15T13:26:28;41.50;;;7.90;;
22565;SDS011;11449;51.330;19.378;2023-04-15T13:31:36;43.90;;;6.40;;
22565;SDS011;11449;51.330;19.378;2023-04-15T13:36:43;36.70;;;7.20;;
22565;SDS011;11449;51.330;19.378;2023-04-15T13:41:52;47.10;;;6.90;;
22565;SDS011;11449;51.330;19.378;2023-04-15T13:46:59;37.10;;;8.40;;
22565;SDS011;11449;51.330;19.378;2023-04-15T13:52:07;46.10;;;9.10;;
22565;SDS011;11449;51.330;19.378;2023-04-15T13:57:15;31.70;;;5.50;;
22565;SDS011;11449;51.330;19.378;2023-04-15T14:02:23;34.50;;;5.40;;
22565;SDS011;11449;51.330;19.378;2023-04-15T14:07:30;45.70;;;7.10;;
22565;SDS011;11449;51.330;19.378;2023-04-15T14:12:38;45.90;;;9.60;;
22565;SDS011;11449;51.330;19.378;2023-04-15T14:17:45;43.50;;;8.30;;
22565;SDS011;11449;51.330;19.378;2023-04-15T14:22:53;38.50;;;7.50;;
22565;SDS011;11449;51.330;19.378;2023-04-15T14:28:01;63.40;;;9.90;;
22565;SDS011;11449;51.330;19.378;2023-04-15T14:33:09;39.00;;;8.70;;
22565;SDS011;11449;51.330;19.378;2023-04-15T14:38:17;34.20;;;8.70;;
22565;SDS011;11449;51.330;19.378;2023-04-15T14:43:25;34.40;;;6.90;;
22565;SDS011;11449;51.330;19.378;2023-04-15T14:48:32;35.60;;;8.60;;
22565;SDS011;11449;51.330;19.378;2023-04-15T14:53:40;48.50;;;11.70;;
22565;SDS011;11449;51.330;19.378;2023-04-15T14:58:48;42.70;;;9.00;;
22565;SDS011;11449;51.330;19.378;2023-04-15T15:03:56;36.20;;;7.60;;
22565;SDS011;11449;51.330;19.378;2023-04-15T15:09:04;36.90;;;8.70;;
22565;SDS011;11449;51.330;19.378;2023-04-15T15:14:12;39.10;;;8.00;;
22565;SDS011;11449;51.330;19.378;2023-04-15T15:19:19;35.70;;;7.80;;
22565;SDS011;11449;51.330;19.378;2023-04-15T15:24:27;48.50;;;11.30;;
22565;SDS011;11449;51.330;19.378;2023-04-15T15:29:35;38.90;;;8.90;;
22565;SDS011;11449;51.330;19.378;2023-04-15T15:34:42;44.00;;;9.50;;
22565;SDS011;11449;51.330;19.378;2023-04-15T15:39:50;40.10;;;8.90;;
22565;SDS011;11449;51.330;19.378;2023-04-15T15:44:58;38.90;;;8.90;;
22565;SDS011;11449;51.330;19.378;2023-04-15T15:50:06;42.40;;;7.20;;
22565;SDS011;11449;51.330;19.378;2023-04-15T15:55:14;57.70;;;8.90;;
22565;SDS011;11449;51.330;19.378;2023-04-15T16:00:22;39.20;;;8.10;;
22565;SDS011;11449;51.330;19.378;2023-04-15T16:05:29;52.20;;;11.10;;
22565;SDS011;11449;51.330;19.378;2023-04-15T16:10:37;51.70;;;12.90;;
22565;SDS011;11449;51.330;19.378;2023-04-15T16:15:45;48.40;;;9.70;;
22565;SDS011;11449;51.330;19.378;2023-04-15T16:20:53;42.10;;;10.30;;
22565;SDS011;11449;51.330;19.378;2023-04-15T16:26:00;52.30;;;13.10;;
22565;SDS011;11449;51.330;19.378;2023-04-15T16:31:09;51.70;;;11.90;;
22565;SDS011;11449;51.330;19.378;2023-04-15T16:36:17;49.40;;;11.30;;
22565;SDS011;11449;51.330;19.378;2023-04-15T16:41:25;63.90;;;26.30;;
22565;SDS011;11449;51.330;19.378;2023-04-15T16:46:32;60.20;;;16.80;;
22565;SDS011;11449;51.330;19.378;2023-04-15T16:51:40;49.10;;;16.60;;
22565;SDS011;11449;51.330;19.378;2023-04-15T16:56:47;53.30;;;12.10;;
22565;SDS011;11449;51.330;19.378;2023-04-15T17:01:55;39.30;;;10.10;;
22565;SDS011;11449;51.330;19.378;2023-04-15T17:07:03;45.40;;;9.80;;
22565;SDS011;11449;51.330;19.378;2023-04-15T17:12:12;33.50;;;7.30;;
22565;SDS011;11449;51.330;19.378;2023-04-15T17:17:20;50.50;;;13.10;;
22565;SDS011;11449;51.330;19.378;2023-04-15T17:22:28;44.30;;;9.50;;
22565;SDS011;11449;51.330;19.378;2023-04-15T17:27:36;61.40;;;23.80;;
22565;SDS011;11449;51.330;19.378;2023-04-15T17:32:45;69.30;;;27.60;;
22565;SDS011;11449;51.330;19.378;2023-04-15T17:37:52;44.90;;;12.80;;
22565;SDS011;11449;51.330;19.378;2023-04-15T17:43:00;62.90;;;21.30;;
22565;SDS011;11449;51.330;19.378;2023-04-15T17:48:07;56.40;;;19.40;;
22565;SDS011;11449;51.330;19.378;2023-04-15T17:53:15;61.30;;;21.80;;
22565;SDS011;11449;51.330;19.378;2023-04-15T17:58:23;43.80;;;15.20;;
22565;SDS011;11449;51.330;19.378;2023-04-15T18:03:32;68.00;;;15.80;;
22565;SDS011;11449;51.330;19.378;2023-04-15T18:08:39;52.00;;;14.10;;
22565;SDS011;11449;51.330;19.378;2023-04-15T18:13:47;70.60;;;13.40;;
22565;SDS011;11449;51.330;19.378;2023-04-15T18:18:55;55.30;;;12.10;;
22565;SDS011;11449;51.330;19.378;2023-04-15T18:24:02;60.40;;;13.30;;
22565;SDS011;11449;51.330;19.378;2023-04-15T18:29:10;66.70;;;19.30;;
22565;SDS011;11449;51.330;19.378;2023-04-15T18:34:18;88.30;;;29.00;;
22565;SDS011;11449;51.330;19.378;2023-04-15T18:39:26;75.90;;;18.70;;
22565;SDS011;11449;51.330;19.378;2023-04-15T18:44:33;96.90;;;26.30;;
22565;SDS011;11449;51.330;19.378;2023-04-15T18:49:41;100.70;;;29.20;;
22565;SDS011;11449;51.330;19.378;2023-04-15T18:54:49;82.60;;;18.80;;
22565;SDS011;11449;51.330;19.378;2023-04-15T18:59:56;45.80;;;11.80;;
22565;SDS011;11449;51.330;19.378;2023-04-15T19:05:04;102.60;;;37.60;;
22565;SDS011;11449;51.330;19.378;2023-04-15T19:10:12;68.50;;;24.60;;
22565;SDS011;11449;51.330;19.378;2023-04-15T19:15:20;80.60;;;15.30;;
22565;SDS011;11449;51.330;19.378;2023-04-15T19:20:27;79.30;;;31.90;;
22565;SDS011;11449;51.330;19.378;2023-04-15T19:25:35;54.00;;;12.20;;
22565;SDS011;11449;51.330;19.378;2023-04-15T19:30:43;41.60;;;8.70;;
22565;SDS011;11449;51.330;19.378;2023-04-15T19:35:51;139.10;;;18.80;;
22565;SDS011;11449;51.330;19.378;2023-04-15T19:40:58;64.10;;;12.80;;
22565;SDS011;11449;51.330;19.378;2023-04-15T19:46:06;62.90;;;12.60;;
22565;SDS011;11449;51.330;19.378;2023-04-15T19:51:14;55.20;;;14.00;;
22565;SDS011;11449;51.330;19.378;2023-04-15T19:56:22;61.00;;;17.50;;
22565;SDS011;11449;51.330;19.378;2023-04-15T20:01:30;61.00;;;13.10;;
22565;SDS011;11449;51.330;19.378;2023-04-15T20:06:38;62.40;;;13.10;;
22565;SDS011;11449;51.330;19.378;2023-04-15T20:11:45;50.20;;;9.40;;
22565;SDS011;11449;51.330;19.378;2023-04-15T20:16:53;53.80;;;12.00;;
22565;SDS011;11449;51.330;19.378;2023-04-15T20:22:01;43.10;;;10.70;;
22565;SDS011;11449;51.330;19.378;2023-04-15T20:27:08;61.30;;;22.30;;
22565;SDS011;11449;51.330;19.378;2023-04-15T20:32:16;42.70;;;10.20;;
22565;SDS011;11449;51.330;19.378;2023-04-15T20:37:24;41.40;;;9.20;;
22565;SDS011;11449;51.330;19.378;2023-04-15T20:42:27;39.90;;;9.40;;
22565;SDS011;11449;51.330;19.378;2023-04-15T20:47:38;43.60;;;9.30;;
22565;SDS011;11449;51.330;19.378;2023-04-15T20:52:45;41.70;;;8.40;;
22565;SDS011;11449;51.330;19.378;2023-04-15T20:57:53;46.00;;;9.40;;
22565;SDS011;11449;51.330;19.378;2023-04-15T21:03:01;46.80;;;10.60;;
22565;SDS011;11449;51.330;19.378;2023-04-15T21:08:09;55.60;;;15.40;;
22565;SDS011;11449;51.330;19.378;2023-04-15T21:13:17;67.70;;;16.00;;
22565;SDS011;11449;51.330;19.378;2023-04-15T21:18:24;49.90;;;17.60;;
22565;SDS011;11449;51.330;19.378;2023-04-15T21:23:32;146.50;;;53.80;;
22565;SDS011;11449;51.330;19.378;2023-04-15T21:28:42;107.80;;;43.00;;
22565;SDS011;11449;51.330;19.378;2023-04-15T21:33:49;92.70;;;37.50;;
22565;SDS011;11449;51.330;19.378;2023-04-15T21:38:57;58.30;;;20.60;;
22565;SDS011;11449;51.330;19.378;2023-04-15T21:44:05;59.20;;;16.40;;
22565;SDS011;11449;51.330;19.378;2023-04-15T21:49:12;42.40;;;13.60;;
22565;SDS011;11449;51.330;19.378;2023-04-15T21:54:20;55.80;;;14.80;;
22565;SDS011;11449;51.330;19.378;2023-04-15T21:59:28;55.10;;;15.20;;
22565;SDS011;11449;51.330;19.378;2023-04-15T22:04:35;64.20;;;18.10;;
22565;SDS011;11449;51.330;19.378;2023-04-15T22:09:44;69.10;;;13.80;;
22565;SDS011;11449;51.330;19.378;2023-04-15T22:14:52;68.80;;;14.70;;
22565;SDS011;11449;51.330;19.378;2023-04-15T22:19:59;67.40;;;15.60;;
22565;SDS011;11449;51.330;19.378;2023-04-15T22:25:07;68.30;;;16.00;;
22565;SDS011;11449;51.330;19.378;2023-04-15T22:30:15;70.30;;;21.20;;
22565;SDS011;11449;51.330;19.378;2023-04-15T22:35:22;78.00;;;18.80;;
22565;SDS011;11449;51.330;19.378;2023-04-15T22:40:30;49.80;;;12.80;;
22565;SDS011;11449;51.330;19.378;2023-04-15T22:45:38;49.00;;;12.10;;
22565;SDS011;11449;51.330;19.378;2023-04-15T22:50:45;51.30;;;13.30;;
22565;SDS011;11449;51.330;19.378;2023-04-15T22:55:53;45.10;;;12.70;;
22565;SDS011;11449;51.330;19.378;2023-04-15T23:01:01;105.70;;;33.70;;
22565;SDS011;11449;51.330;19.378;2023-04-15T23:06:08;86.30;;;25.60;;
22565;SDS011;11449;51.330;19.378;2023-04-15T23:11:16;66.20;;;21.00;;
22565;SDS011;11449;51.330;19.378;2023-04-15T23:16:25;68.80;;;21.80;;
22565;SDS011;11449;51.330;19.378;2023-04-15T23:21:33;82.40;;;19.80;;
22565;SDS011;11449;51.330;19.378;2023-04-15T23:26:41;81.20;;;19.00;;
22565;SDS011;11449;51.330;19.378;2023-04-15T23:31:48;69.00;;;18.70;;
22565;SDS011;11449;51.330;19.378;2023-04-15T23:36:56;77.00;;;27.50;;
22565;SDS011;11449;51.330;19.378;2023-04-15T23:42:04;56.00;;;19.60;;
22565;SDS011;11449;51.330;19.378;2023-04-15T23:47:11;58.00;;;19.00;;
22565;SDS011;11449;51.330;19.378;2023-04-15T23:52:19;54.00;;;15.10;;
22565;SDS011;11449;51.330;19.378;2023-04-15T23:57:27;62.30;;;16.80;;
